sensor_id;sensor_type;location;lat;lon;timestamp;P1;durP1;ratioP1;P2;durP2;ratioP2
14276;SDS011;7222;57.346;12.150;2023-07-28T00:01:06;2.87;;;2.33;;
14276;SDS011;7222;57.346;12.150;2023-07-28T00:03:33;3.03;;;2.67;;
14276;SDS011;7222;57.346;12.150;2023-07-28T00:06:00;2.60;;;2.40;;
14276;SDS011;7222;57.346;12.150;2023-07-28T00:08:27;3.17;;;2.87;;
14276;SDS011;7222;57.346;12.150;2023-07-28T00:10:54;3.67;;;2.73;;
14276;SDS011;7222;57.346;12.150;2023-07-28T00:13:22;3.70;;;2.53;;
14276;SDS011;7222;57.346;12.150;2023-07-28T00:15:49;3.23;;;2.47;;
14276;SDS011;7222;57.346;12.150;2023-07-28T00:18:16;2.67;;;2.47;;
14276;SDS011;7222;57.346;12.150;2023-07-28T00:20:46;2.70;;;2.50;;
14276;SDS011;7222;57.346;12.150;2023-07-28T00:23:13;2.67;;;2.40;;
14276;SDS011;7222;57.346;12.150;2023-07-28T00:25:40;4.17;;;2.40;;
14276;SDS011;7222;57.346;12.150;2023-07-28T00:28:07;2.50;;;2.30;;
14276;SDS011;7222;57.346;12.150;2023-07-28T00:30:35;2.80;;;2.60;;
14276;SDS011;7222;57.346;12.150;2023-07-28T00:33:03;2.50;;;2.30;;
14276;SDS011;7222;57.346;12.150;2023-07-28T00:35:29;3.30;;;2.30;;
14276;SDS011;7222;57.346;12.150;2023-07-28T00:37:56;3.47;;;2.63;;
14276;SDS011;7222;57.346;12.150;2023-07-28T00:40:23;3.10;;;2.57;;
14276;SDS011;7222;57.346;12.150;2023-07-28T00:42:51;4.03;;;2.70;;
14276;SDS011;7222;57.346;12.150;2023-07-28T00:45:18;2.90;;;2.30;;
14276;SDS011;7222;57.346;12.150;2023-07-28T00:47:47;3.03;;;2.83;;
14276;SDS011;7222;57.346;12.150;2023-07-28T00:50:14;2.50;;;2.30;;
14276;SDS011;7222;57.346;12.150;2023-07-28T00:52:40;2.40;;;2.20;;
14276;SDS011;7222;57.346;12.150;2023-07-28T00:55:08;4.27;;;2.70;;
14276;SDS011;7222;57.346;12.150;2023-07-28T00:57:35;4.60;;;2.67;;
14276;SDS011;7222;57.346;12.150;2023-07-28T01:00:04;3.63;;;2.77;;
14276;SDS011;7222;57.346;12.150;2023-07-28T01:02:32;3.50;;;2.23;;
14276;SDS011;7222;57.346;12.150;2023-07-28T01:05:01;2.83;;;2.53;;
14276;SDS011;7222;57.346;12.150;2023-07-28T01:07:30;4.00;;;2.60;;
14276;SDS011;7222;57.346;12.150;2023-07-28T01:10:05;4.00;;;2.40;;
14276;SDS011;7222;57.346;12.150;2023-07-28T01:12:36;3.10;;;2.13;;
14276;SDS011;7222;57.346;12.150;2023-07-28T01:15:03;3.60;;;2.47;;
14276;SDS011;7222;57.346;12.150;2023-07-28T01:17:31;2.80;;;2.60;;
14276;SDS011;7222;57.346;12.150;2023-07-28T01:19:57;3.30;;;2.43;;
14276;SDS011;7222;57.346;12.150;2023-07-28T01:22:46;2.83;;;2.30;;
14276;SDS011;7222;57.346;12.150;2023-07-28T01:25:18;2.77;;;2.50;;
14276;SDS011;7222;57.346;12.150;2023-07-28T01:27:53;2.43;;;2.23;;
14276;SDS011;7222;57.346;12.150;2023-07-28T01:30:22;2.90;;;2.50;;
14276;SDS011;7222;57.346;12.150;2023-07-28T01:32:53;2.93;;;2.40;;
14276;SDS011;7222;57.346;12.150;2023-07-28T01:35:20;3.70;;;2.77;;
14276;SDS011;7222;57.346;12.150;2023-07-28T01:37:47;3.43;;;2.80;;
14276;SDS011;7222;57.346;12.150;2023-07-28T01:40:15;2.73;;;2.50;;
14276;SDS011;7222;57.346;12.150;2023-07-28T01:42:42;2.70;;;2.50;;
14276;SDS011;7222;57.346;12.150;2023-07-28T01:45:11;3.17;;;2.73;;
14276;SDS011;7222;57.346;12.150;2023-07-28T01:47:38;3.67;;;2.97;;
14276;SDS011;7222;57.346;12.150;2023-07-28T01:50:05;4.43;;;2.60;;
14276;SDS011;7222;57.346;12.150;2023-07-28T01:52:33;3.27;;;2.60;;
14276;SDS011;7222;57.346;12.150;2023-07-28T01:55:00;3.63;;;2.47;;
14276;SDS011;7222;57.346;12.150;2023-07-28T01:57:27;4.00;;;2.50;;
14276;SDS011;7222;57.346;12.150;2023-07-28T01:59:57;3.20;;;2.90;;
14276;SDS011;7222;57.346;12.150;2023-07-28T02:02:25;2.50;;;2.10;;
14276;SDS011;7222;57.346;12.150;2023-07-28T02:04:52;2.40;;;2.20;;
14276;SDS011;7222;57.346;12.150;2023-07-28T02:07:19;2.60;;;2.40;;
14276;SDS011;7222;57.346;12.150;2023-07-28T02:09:46;3.47;;;2.50;;
14276;SDS011;7222;57.346;12.150;2023-07-28T02:12:13;3.77;;;2.60;;
14276;SDS011;7222;57.346;12.150;2023-07-28T02:14:40;2.80;;;2.40;;
14276;SDS011;7222;57.346;12.150;2023-07-28T02:17:07;2.67;;;2.47;;
14276;SDS011;7222;57.346;12.150;2023-07-28T02:19:35;3.00;;;2.70;;
14276;SDS011;7222;57.346;12.150;2023-07-28T02:22:02;3.10;;;2.30;;
14276;SDS011;7222;57.346;12.150;2023-07-28T02:24:30;2.73;;;2.10;;
14276;SDS011;7222;57.346;12.150;2023-07-28T02:26:56;2.73;;;2.10;;
14276;SDS011;7222;57.346;12.150;2023-07-28T02:29:23;2.30;;;2.10;;
14276;SDS011;7222;57.346;12.150;2023-07-28T02:31:50;2.43;;;2.10;;
14276;SDS011;7222;57.346;12.150;2023-07-28T02:34:17;3.10;;;2.30;;
14276;SDS011;7222;57.346;12.150;2023-07-28T02:36:45;1.90;;;1.80;;
14276;SDS011;7222;57.346;12.150;2023-07-28T02:39:13;2.70;;;2.50;;
14276;SDS011;7222;57.346;12.150;2023-07-28T02:41:40;2.80;;;2.03;;
14276;SDS011;7222;57.346;12.150;2023-07-28T02:44:07;2.60;;;2.00;;
14276;SDS011;7222;57.346;12.150;2023-07-28T02:46:33;2.07;;;1.97;;
14276;SDS011;7222;57.346;12.150;2023-07-28T02:49:02;3.30;;;2.13;;
14276;SDS011;7222;57.346;12.150;2023-07-28T02:51:29;2.57;;;2.37;;
14276;SDS011;7222;57.346;12.150;2023-07-28T02:53:58;3.27;;;2.37;;
14276;SDS011;7222;57.346;12.150;2023-07-28T02:56:25;3.23;;;2.53;;
14276;SDS011;7222;57.346;12.150;2023-07-28T02:58:51;2.60;;;2.40;;
14276;SDS011;7222;57.346;12.150;2023-07-28T03:01:18;3.87;;;2.40;;
14276;SDS011;7222;57.346;12.150;2023-07-28T03:03:45;3.50;;;2.27;;
14276;SDS011;7222;57.346;12.150;2023-07-28T03:06:13;2.20;;;2.07;;
14276;SDS011;7222;57.346;12.150;2023-07-28T03:08:40;3.10;;;2.20;;
14276;SDS011;7222;57.346;12.150;2023-07-28T03:11:09;2.20;;;2.00;;
14276;SDS011;7222;57.346;12.150;2023-07-28T03:13:36;2.10;;;2.00;;
14276;SDS011;7222;57.346;12.150;2023-07-28T03:16:02;2.20;;;1.73;;
14276;SDS011;7222;57.346;12.150;2023-07-28T03:18:30;2.20;;;2.00;;
14276;SDS011;7222;57.346;12.150;2023-07-28T03:20:57;1.83;;;1.70;;
14276;SDS011;7222;57.346;12.150;2023-07-28T03:23:24;2.80;;;1.97;;
14276;SDS011;7222;57.346;12.150;2023-07-28T03:25:51;1.97;;;1.87;;
14276;SDS011;7222;57.346;12.150;2023-07-28T03:28:19;2.20;;;1.93;;
14276;SDS011;7222;57.346;12.150;2023-07-28T03:30:46;2.23;;;2.07;;
14276;SDS011;7222;57.346;12.150;2023-07-28T03:33:13;2.40;;;2.00;;
14276;SDS011;7222;57.346;12.150;2023-07-28T03:35:40;2.23;;;1.70;;
14276;SDS011;7222;57.346;12.150;2023-07-28T03:38:07;1.80;;;1.70;;
14276;SDS011;7222;57.346;12.150;2023-07-28T03:40:34;1.90;;;1.70;;
14276;SDS011;7222;57.346;12.150;2023-07-28T03:43:01;2.17;;;1.90;;
14276;SDS011;7222;57.346;12.150;2023-07-28T03:45:30;1.83;;;1.70;;
14276;SDS011;7222;57.346;12.150;2023-07-28T03:47:57;1.90;;;1.80;;
14276;SDS011;7222;57.346;12.150;2023-07-28T03:50:23;1.93;;;1.83;;
14276;SDS011;7222;57.346;12.150;2023-07-28T03:52:51;2.80;;;1.80;;
14276;SDS011;7222;57.346;12.150;2023-07-28T03:55:18;4.67;;;2.20;;
14276;SDS011;7222;57.346;12.150;2023-07-28T03:57:45;1.80;;;1.70;;
14276;SDS011;7222;57.346;12.150;2023-07-28T04:00:12;1.90;;;1.80;;
14276;SDS011;7222;57.346;12.150;2023-07-28T04:02:41;2.10;;;1.90;;
14276;SDS011;7222;57.346;12.150;2023-07-28T04:05:08;1.73;;;1.50;;
14276;SDS011;7222;57.346;12.150;2023-07-28T04:07:35;1.87;;;1.77;;
14276;SDS011;7222;57.346;12.150;2023-07-28T04:10:02;2.20;;;1.73;;
14276;SDS011;7222;57.346;12.150;2023-07-28T04:12:30;2.87;;;1.93;;
14276;SDS011;7222;57.346;12.150;2023-07-28T04:14:57;2.10;;;1.80;;
14276;SDS011;7222;57.346;12.150;2023-07-28T04:17:24;1.60;;;1.50;;
14276;SDS011;7222;57.346;12.150;2023-07-28T04:19:53;1.70;;;1.60;;
14276;SDS011;7222;57.346;12.150;2023-07-28T04:22:20;1.93;;;1.80;;
14276;SDS011;7222;57.346;12.150;2023-07-28T04:24:47;1.70;;;1.60;;
14276;SDS011;7222;57.346;12.150;2023-07-28T04:27:14;2.17;;;1.70;;
14276;SDS011;7222;57.346;12.150;2023-07-28T04:29:41;2.30;;;2.20;;
14276;SDS011;7222;57.346;12.150;2023-07-28T04:32:09;2.00;;;1.90;;
14276;SDS011;7222;57.346;12.150;2023-07-28T04:34:36;2.30;;;2.10;;
14276;SDS011;7222;57.346;12.150;2023-07-28T04:37:04;3.00;;;2.80;;
14276;SDS011;7222;57.346;12.150;2023-07-28T04:39:32;3.67;;;3.20;;
14276;SDS011;7222;57.346;12.150;2023-07-28T04:41:58;3.77;;;3.37;;
14276;SDS011;7222;57.346;12.150;2023-07-28T04:44:25;3.87;;;3.57;;
14276;SDS011;7222;57.346;12.150;2023-07-28T04:46:52;3.43;;;3.13;;
14276;SDS011;7222;57.346;12.150;2023-07-28T04:49:19;3.63;;;3.33;;
14276;SDS011;7222;57.346;12.150;2023-07-28T04:51:47;4.23;;;3.83;;
14276;SDS011;7222;57.346;12.150;2023-07-28T04:54:15;5.97;;;4.43;;
14276;SDS011;7222;57.346;12.150;2023-07-28T04:56:42;8.17;;;5.20;;
14276;SDS011;7222;57.346;12.150;2023-07-28T04:59:10;7.00;;;5.87;;
14276;SDS011;7222;57.346;12.150;2023-07-28T05:01:37;8.77;;;6.17;;
14276;SDS011;7222;57.346;12.150;2023-07-28T05:04:04;7.67;;;5.93;;
14276;SDS011;7222;57.346;12.150;2023-07-28T05:06:31;8.70;;;6.13;;
14276;SDS011;7222;57.346;12.150;2023-07-28T05:08:58;7.33;;;6.37;;
14276;SDS011;7222;57.346;12.150;2023-07-28T05:11:26;10.33;;;6.97;;
14276;SDS011;7222;57.346;12.150;2023-07-28T05:13:53;9.03;;;6.73;;
14276;SDS011;7222;57.346;12.150;2023-07-28T05:16:20;11.87;;;7.63;;
14276;SDS011;7222;57.346;12.150;2023-07-28T05:18:46;11.87;;;8.33;;
14276;SDS011;7222;57.346;12.150;2023-07-28T05:21:13;11.23;;;8.00;;
14276;SDS011;7222;57.346;12.150;2023-07-28T05:23:40;11.23;;;8.83;;
14276;SDS011;7222;57.346;12.150;2023-07-28T05:26:07;13.77;;;8.60;;
14276;SDS011;7222;57.346;12.150;2023-07-28T05:28:36;16.37;;;10.00;;
14276;SDS011;7222;57.346;12.150;2023-07-28T05:31:03;12.97;;;8.77;;
14276;SDS011;7222;57.346;12.150;2023-07-28T05:33:30;13.87;;;9.73;;
14276;SDS011;7222;57.346;12.150;2023-07-28T05:36:00;13.73;;;10.60;;
14276;SDS011;7222;57.346;12.150;2023-07-28T05:38:28;13.27;;;9.70;;
14276;SDS011;7222;57.346;12.150;2023-07-28T05:40:56;13.50;;;10.67;;
14276;SDS011;7222;57.346;12.150;2023-07-28T05:43:23;14.23;;;9.33;;
14276;SDS011;7222;57.346;12.150;2023-07-28T05:45:51;16.27;;;10.77;;
14276;SDS011;7222;57.346;12.150;2023-07-28T05:48:18;14.83;;;11.13;;
14276;SDS011;7222;57.346;12.150;2023-07-28T05:50:45;14.80;;;10.27;;
14276;SDS011;7222;57.346;12.150;2023-07-28T05:53:12;16.93;;;11.10;;
14276;SDS011;7222;57.346;12.150;2023-07-28T05:55:39;17.40;;;11.20;;
14276;SDS011;7222;57.346;12.150;2023-07-28T05:58:06;18.30;;;12.67;;
14276;SDS011;7222;57.346;12.150;2023-07-28T06:00:33;21.60;;;15.03;;
14276;SDS011;7222;57.346;12.150;2023-07-28T06:03:03;23.77;;;15.87;;
14276;SDS011;7222;57.346;12.150;2023-07-28T06:05:30;24.03;;;18.20;;
14276;SDS011;7222;57.346;12.150;2023-07-28T06:07:57;23.10;;;15.37;;
14276;SDS011;7222;57.346;12.150;2023-07-28T06:10:23;26.37;;;16.80;;
14276;SDS011;7222;57.346;12.150;2023-07-28T06:12:50;20.10;;;14.27;;
14276;SDS011;7222;57.346;12.150;2023-07-28T06:15:17;21.97;;;14.13;;
14276;SDS011;7222;57.346;12.150;2023-07-28T06:17:44;18.77;;;12.83;;
14276;SDS011;7222;57.346;12.150;2023-07-28T06:20:13;17.60;;;11.53;;
14276;SDS011;7222;57.346;12.150;2023-07-28T06:22:40;16.37;;;10.53;;
14276;SDS011;7222;57.346;12.150;2023-07-28T06:25:07;14.63;;;9.97;;
14276;SDS011;7222;57.346;12.150;2023-07-28T06:27:35;9.03;;;7.67;;
14276;SDS011;7222;57.346;12.150;2023-07-28T06:30:04;9.93;;;7.37;;
14276;SDS011;7222;57.346;12.150;2023-07-28T06:32:31;11.60;;;6.73;;
14276;SDS011;7222;57.346;12.150;2023-07-28T06:34:58;7.73;;;6.47;;
14276;SDS011;7222;57.346;12.150;2023-07-28T06:37:27;9.20;;;5.87;;
14276;SDS011;7222;57.346;12.150;2023-07-28T06:39:54;8.17;;;5.97;;
14276;SDS011;7222;57.346;12.150;2023-07-28T06:42:21;7.83;;;5.30;;
14276;SDS011;7222;57.346;12.150;2023-07-28T06:44:49;5.43;;;4.93;;
14276;SDS011;7222;57.346;12.150;2023-07-28T06:47:16;4.57;;;4.17;;
14276;SDS011;7222;57.346;12.150;2023-07-28T06:49:44;5.80;;;3.80;;
14276;SDS011;7222;57.346;12.150;2023-07-28T06:52:11;5.13;;;3.83;;
14276;SDS011;7222;57.346;12.150;2023-07-28T06:54:40;5.07;;;3.47;;
14276;SDS011;7222;57.346;12.150;2023-07-28T06:57:07;3.07;;;2.87;;
14276;SDS011;7222;57.346;12.150;2023-07-28T06:59:35;3.10;;;2.90;;
14276;SDS011;7222;57.346;12.150;2023-07-28T07:02:02;2.57;;;2.37;;
14276;SDS011;7222;57.346;12.150;2023-07-28T07:04:30;2.87;;;2.40;;
14276;SDS011;7222;57.346;12.150;2023-07-28T07:06:57;3.63;;;2.50;;
14276;SDS011;7222;57.346;12.150;2023-07-28T07:09:24;3.23;;;2.30;;
14276;SDS011;7222;57.346;12.150;2023-07-28T07:11:53;2.83;;;2.33;;
14276;SDS011;7222;57.346;12.150;2023-07-28T07:14:20;4.77;;;2.73;;
14276;SDS011;7222;57.346;12.150;2023-07-28T07:16:48;4.50;;;2.57;;
14276;SDS011;7222;57.346;12.150;2023-07-28T07:19:15;2.57;;;2.37;;
14276;SDS011;7222;57.346;12.150;2023-07-28T07:21:42;2.50;;;2.30;;
14276;SDS011;7222;57.346;12.150;2023-07-28T07:24:10;3.83;;;2.57;;
14276;SDS011;7222;57.346;12.150;2023-07-28T07:26:39;2.60;;;2.40;;
14276;SDS011;7222;57.346;12.150;2023-07-28T07:29:08;2.50;;;2.30;;
14276;SDS011;7222;57.346;12.150;2023-07-28T07:31:35;3.47;;;2.27;;
14276;SDS011;7222;57.346;12.150;2023-07-28T07:34:02;2.87;;;2.67;;
14276;SDS011;7222;57.346;12.150;2023-07-28T07:36:30;2.60;;;2.20;;
14276;SDS011;7222;57.346;12.150;2023-07-28T07:38:58;2.50;;;2.30;;
14276;SDS011;7222;57.346;12.150;2023-07-28T07:41:25;2.53;;;2.33;;
14276;SDS011;7222;57.346;12.150;2023-07-28T07:43:52;3.17;;;2.40;;
14276;SDS011;7222;57.346;12.150;2023-07-28T07:46:22;2.60;;;2.40;;
14276;SDS011;7222;57.346;12.150;2023-07-28T07:48:49;3.73;;;2.60;;
14276;SDS011;7222;57.346;12.150;2023-07-28T07:51:16;2.20;;;2.00;;
14276;SDS011;7222;57.346;12.150;2023-07-28T07:53:43;3.27;;;2.30;;
14276;SDS011;7222;57.346;12.150;2023-07-28T07:56:11;3.80;;;2.53;;
14276;SDS011;7222;57.346;12.150;2023-07-28T07:58:38;2.73;;;2.10;;
14276;SDS011;7222;57.346;12.150;2023-07-28T08:01:05;3.63;;;2.03;;
14276;SDS011;7222;57.346;12.150;2023-07-28T08:03:34;2.80;;;2.20;;
14276;SDS011;7222;57.346;12.150;2023-07-28T08:06:03;3.60;;;2.33;;
14276;SDS011;7222;57.346;12.150;2023-07-28T08:08:30;2.30;;;2.10;;
14276;SDS011;7222;57.346;12.150;2023-07-28T08:10:57;1.77;;;1.67;;
14276;SDS011;7222;57.346;12.150;2023-07-28T08:13:25;2.77;;;1.87;;
14276;SDS011;7222;57.346;12.150;2023-07-28T08:15:53;3.07;;;1.93;;
14276;SDS011;7222;57.346;12.150;2023-07-28T08:18:21;4.23;;;2.23;;
14276;SDS011;7222;57.346;12.150;2023-07-28T08:20:49;2.10;;;1.87;;
14276;SDS011;7222;57.346;12.150;2023-07-28T08:23:16;3.93;;;2.10;;
14276;SDS011;7222;57.346;12.150;2023-07-28T08:25:43;2.60;;;2.40;;
14276;SDS011;7222;57.346;12.150;2023-07-28T08:28:11;3.47;;;1.83;;
14276;SDS011;7222;57.346;12.150;2023-07-28T08:30:38;3.80;;;2.27;;
14276;SDS011;7222;57.346;12.150;2023-07-28T08:33:05;2.20;;;2.00;;
14276;SDS011;7222;57.346;12.150;2023-07-28T08:35:32;1.90;;;1.80;;
14276;SDS011;7222;57.346;12.150;2023-07-28T08:38:00;2.43;;;2.20;;
14276;SDS011;7222;57.346;12.150;2023-07-28T08:40:28;2.70;;;1.77;;
14276;SDS011;7222;57.346;12.150;2023-07-28T08:42:55;2.60;;;2.13;;
14276;SDS011;7222;57.346;12.150;2023-07-28T08:45:22;1.97;;;1.80;;
14276;SDS011;7222;57.346;12.150;2023-07-28T08:47:50;2.27;;;2.00;;
14276;SDS011;7222;57.346;12.150;2023-07-28T08:50:17;2.87;;;1.87;;
14276;SDS011;7222;57.346;12.150;2023-07-28T08:52:44;2.70;;;1.70;;
14276;SDS011;7222;57.346;12.150;2023-07-28T08:55:13;2.13;;;1.80;;
14276;SDS011;7222;57.346;12.150;2023-07-28T08:57:42;3.00;;;1.80;;
14276;SDS011;7222;57.346;12.150;2023-07-28T09:00:09;3.67;;;2.00;;
14276;SDS011;7222;57.346;12.150;2023-07-28T09:02:39;2.00;;;1.67;;
14276;SDS011;7222;57.346;12.150;2023-07-28T09:05:08;3.10;;;2.20;;
14276;SDS011;7222;57.346;12.150;2023-07-28T09:07:44;2.43;;;1.80;;
14276;SDS011;7222;57.346;12.150;2023-07-28T09:10:13;2.43;;;2.10;;
14276;SDS011;7222;57.346;12.150;2023-07-28T09:12:47;3.20;;;1.80;;
14276;SDS011;7222;57.346;12.150;2023-07-28T09:15:14;3.77;;;2.10;;
14276;SDS011;7222;57.346;12.150;2023-07-28T09:17:43;2.60;;;1.80;;
14276;SDS011;7222;57.346;12.150;2023-07-28T09:20:12;2.27;;;1.97;;
14276;SDS011;7222;57.346;12.150;2023-07-28T09:22:40;2.00;;;1.77;;
14276;SDS011;7222;57.346;12.150;2023-07-28T09:25:13;2.23;;;1.90;;
14276;SDS011;7222;57.346;12.150;2023-07-28T09:27:43;3.50;;;1.87;;
14276;SDS011;7222;57.346;12.150;2023-07-28T09:30:16;2.90;;;2.00;;
14276;SDS011;7222;57.346;12.150;2023-07-28T09:32:46;3.27;;;2.20;;
14276;SDS011;7222;57.346;12.150;2023-07-28T09:35:14;2.07;;;1.93;;
14276;SDS011;7222;57.346;12.150;2023-07-28T09:37:42;4.23;;;2.33;;
14276;SDS011;7222;57.346;12.150;2023-07-28T09:40:11;1.83;;;1.73;;
14276;SDS011;7222;57.346;12.150;2023-07-28T09:42:42;2.43;;;2.23;;
14276;SDS011;7222;57.346;12.150;2023-07-28T09:45:14;3.13;;;1.90;;
14276;SDS011;7222;57.346;12.150;2023-07-28T09:47:42;3.30;;;2.30;;
14276;SDS011;7222;57.346;12.150;2023-07-28T09:50:10;2.50;;;2.20;;
14276;SDS011;7222;57.346;12.150;2023-07-28T09:52:42;2.97;;;2.20;;
14276;SDS011;7222;57.346;12.150;2023-07-28T09:55:10;4.90;;;2.20;;
14276;SDS011;7222;57.346;12.150;2023-07-28T09:57:41;2.83;;;2.13;;
14276;SDS011;7222;57.346;12.150;2023-07-28T10:00:13;2.40;;;2.20;;
14276;SDS011;7222;57.346;12.150;2023-07-28T10:02:41;2.67;;;2.43;;
14276;SDS011;7222;57.346;12.150;2023-07-28T10:05:09;3.37;;;2.17;;
14276;SDS011;7222;57.346;12.150;2023-07-28T10:07:37;3.23;;;1.90;;
14276;SDS011;7222;57.346;12.150;2023-07-28T10:10:06;3.47;;;2.17;;
14276;SDS011;7222;57.346;12.150;2023-07-28T10:12:40;3.27;;;2.20;;
14276;SDS011;7222;57.346;12.150;2023-07-28T10:15:11;2.17;;;1.87;;
14276;SDS011;7222;57.346;12.150;2023-07-28T10:17:42;2.87;;;2.30;;
14276;SDS011;7222;57.346;12.150;2023-07-28T10:23:01;2.70;;;1.90;;
14276;SDS011;7222;57.346;12.150;2023-07-28T10:25:33;4.10;;;1.93;;
14276;SDS011;7222;57.346;12.150;2023-07-28T10:28:03;2.10;;;1.93;;
14276;SDS011;7222;57.346;12.150;2023-07-28T10:30:34;2.07;;;1.93;;
14276;SDS011;7222;57.346;12.150;2023-07-28T10:33:03;2.67;;;2.00;;
14276;SDS011;7222;57.346;12.150;2023-07-28T10:35:30;2.27;;;2.07;;
14276;SDS011;7222;57.346;12.150;2023-07-28T10:38:01;3.80;;;2.20;;
14276;SDS011;7222;57.346;12.150;2023-07-28T10:41:04;2.37;;;2.10;;
14276;SDS011;7222;57.346;12.150;2023-07-28T10:43:37;1.90;;;1.80;;
14276;SDS011;7222;57.346;12.150;2023-07-28T10:46:04;3.27;;;2.40;;
14276;SDS011;7222;57.346;12.150;2023-07-28T10:48:33;2.30;;;2.10;;
14276;SDS011;7222;57.346;12.150;2023-07-28T10:51:02;3.30;;;1.90;;
14276;SDS011;7222;57.346;12.150;2023-07-28T10:53:29;2.30;;;2.10;;
14276;SDS011;7222;57.346;12.150;2023-07-28T10:55:58;2.40;;;2.20;;
14276;SDS011;7222;57.346;12.150;2023-07-28T10:58:25;2.50;;;1.70;;
14276;SDS011;7222;57.346;12.150;2023-07-28T11:00:53;1.90;;;1.80;;
14276;SDS011;7222;57.346;12.150;2023-07-28T11:03:21;1.97;;;1.77;;
14276;SDS011;7222;57.346;12.150;2023-07-28T11:05:49;1.80;;;1.70;;
14276;SDS011;7222;57.346;12.150;2023-07-28T11:08:16;2.10;;;1.90;;
14276;SDS011;7222;57.346;12.150;2023-07-28T11:10:43;2.13;;;1.93;;
14276;SDS011;7222;57.346;12.150;2023-07-28T11:13:10;2.70;;;1.70;;
14276;SDS011;7222;57.346;12.150;2023-07-28T11:15:37;3.03;;;1.80;;
14276;SDS011;7222;57.346;12.150;2023-07-28T11:18:06;4.80;;;1.70;;
14276;SDS011;7222;57.346;12.150;2023-07-28T11:20:34;1.73;;;1.63;;
14276;SDS011;7222;57.346;12.150;2023-07-28T11:23:02;2.60;;;1.83;;
14276;SDS011;7222;57.346;12.150;2023-07-28T11:25:30;2.53;;;1.80;;
14276;SDS011;7222;57.346;12.150;2023-07-28T11:28:00;2.40;;;1.90;;
14276;SDS011;7222;57.346;12.150;2023-07-28T11:30:28;1.97;;;1.80;;
14276;SDS011;7222;57.346;12.150;2023-07-28T11:32:55;1.97;;;1.70;;
14276;SDS011;7222;57.346;12.150;2023-07-28T11:35:23;3.07;;;1.80;;
14276;SDS011;7222;57.346;12.150;2023-07-28T11:37:51;2.10;;;1.90;;
14276;SDS011;7222;57.346;12.150;2023-07-28T11:40:20;1.70;;;1.60;;
14276;SDS011;7222;57.346;12.150;2023-07-28T11:42:48;1.77;;;1.67;;
14276;SDS011;7222;57.346;12.150;2023-07-28T11:45:18;2.73;;;1.70;;
14276;SDS011;7222;57.346;12.150;2023-07-28T11:50:35;1.73;;;1.60;;
14276;SDS011;7222;57.346;12.150;2023-07-28T11:53:03;6.13;;;1.90;;
14276;SDS011;7222;57.346;12.150;2023-07-28T11:55:31;2.70;;;1.87;;
14276;SDS011;7222;57.346;12.150;2023-07-28T11:57:59;1.73;;;1.40;;
14276;SDS011;7222;57.346;12.150;2023-07-28T12:00:29;3.50;;;1.80;;
14276;SDS011;7222;57.346;12.150;2023-07-28T12:03:03;1.60;;;1.48;;
14276;SDS011;7222;57.346;12.150;2023-07-28T12:05:31;3.58;;;2.05;;
14276;SDS011;7222;57.346;12.150;2023-07-28T12:08:01;2.83;;;1.60;;
14276;SDS011;7222;57.346;12.150;2023-07-28T12:10:29;1.80;;;1.70;;
14276;SDS011;7222;57.346;12.150;2023-07-28T12:12:57;1.92;;;1.83;;
14276;SDS011;7222;57.346;12.150;2023-07-28T12:15:29;2.45;;;1.60;;
14276;SDS011;7222;57.346;12.150;2023-07-28T12:18:04;1.90;;;1.70;;
14276;SDS011;7222;57.346;12.150;2023-07-28T12:20:38;2.88;;;1.63;;
14276;SDS011;7222;57.346;12.150;2023-07-28T12:23:08;2.47;;;1.60;;
14276;SDS011;7222;57.346;12.150;2023-07-28T12:25:35;1.85;;;1.75;;
14276;SDS011;7222;57.346;12.150;2023-07-28T12:28:03;2.15;;;1.60;;
14276;SDS011;7222;57.346;12.150;2023-07-28T12:30:30;2.17;;;1.52;;
14276;SDS011;7222;57.346;12.150;2023-07-28T12:32:57;1.75;;;1.63;;
14276;SDS011;7222;57.346;12.150;2023-07-28T12:35:25;2.90;;;1.60;;
14276;SDS011;7222;57.346;12.150;2023-07-28T12:37:56;1.50;;;1.40;;
14276;SDS011;7222;57.346;12.150;2023-07-28T12:40:26;1.63;;;1.45;;
14276;SDS011;7222;57.346;12.150;2023-07-28T12:42:54;1.75;;;1.52;;
14276;SDS011;7222;57.346;12.150;2023-07-28T12:45:21;2.22;;;1.80;;
14276;SDS011;7222;57.346;12.150;2023-07-28T12:47:50;2.50;;;2.30;;
14276;SDS011;7222;57.346;12.150;2023-07-28T12:50:18;2.47;;;1.85;;
14276;SDS011;7222;57.346;12.150;2023-07-28T12:52:45;2.75;;;1.60;;
14276;SDS011;7222;57.346;12.150;2023-07-28T12:55:12;2.40;;;1.55;;
14276;SDS011;7222;57.346;12.150;2023-07-28T12:57:41;2.83;;;1.40;;
14276;SDS011;7222;57.346;12.150;2023-07-28T13:00:08;4.35;;;1.88;;
14276;SDS011;7222;57.346;12.150;2023-07-28T13:02:38;1.70;;;1.60;;
14276;SDS011;7222;57.346;12.150;2023-07-28T13:05:06;2.88;;;1.65;;
14276;SDS011;7222;57.346;12.150;2023-07-28T13:07:35;2.72;;;1.70;;
14276;SDS011;7222;57.346;12.150;2023-07-28T13:10:02;2.25;;;1.60;;
14276;SDS011;7222;57.346;12.150;2023-07-28T13:12:29;1.75;;;1.63;;
14276;SDS011;7222;57.346;12.150;2023-07-28T13:14:58;1.65;;;1.55;;
14276;SDS011;7222;57.346;12.150;2023-07-28T13:17:25;2.33;;;1.52;;
14276;SDS011;7222;57.346;12.150;2023-07-28T13:19:52;1.65;;;1.55;;
14276;SDS011;7222;57.346;12.150;2023-07-28T13:22:19;2.05;;;1.40;;
14276;SDS011;7222;57.346;12.150;2023-07-28T13:24:45;3.05;;;1.67;;
14276;SDS011;7222;57.346;12.150;2023-07-28T13:27:12;1.63;;;1.40;;
14276;SDS011;7222;57.346;12.150;2023-07-28T13:29:39;1.40;;;1.30;;
14276;SDS011;7222;57.346;12.150;2023-07-28T13:32:15;2.45;;;1.60;;
14276;SDS011;7222;57.346;12.150;2023-07-28T13:34:43;1.30;;;1.20;;
14276;SDS011;7222;57.346;12.150;2023-07-28T13:37:10;1.33;;;1.10;;
14276;SDS011;7222;57.346;12.150;2023-07-28T13:39:37;2.35;;;1.55;;
14276;SDS011;7222;57.346;12.150;2023-07-28T13:42:03;2.10;;;1.58;;
14276;SDS011;7222;57.346;12.150;2023-07-28T13:44:30;1.25;;;1.25;;
14276;SDS011;7222;57.346;12.150;2023-07-28T13:46:57;1.50;;;1.40;;
14276;SDS011;7222;57.346;12.150;2023-07-28T13:49:26;2.08;;;1.48;;
14276;SDS011;7222;57.346;12.150;2023-07-28T13:51:53;1.95;;;1.45;;
14276;SDS011;7222;57.346;12.150;2023-07-28T13:54:20;3.38;;;1.55;;
14276;SDS011;7222;57.346;12.150;2023-07-28T13:56:47;1.60;;;1.50;;
14276;SDS011;7222;57.346;12.150;2023-07-28T13:59:15;1.60;;;1.50;;
14276;SDS011;7222;57.346;12.150;2023-07-28T14:01:41;1.60;;;1.50;;
14276;SDS011;7222;57.346;12.150;2023-07-28T14:04:08;1.73;;;1.63;;
14276;SDS011;7222;57.346;12.150;2023-07-28T14:06:36;1.80;;;1.70;;
14276;SDS011;7222;57.346;12.150;2023-07-28T14:09:03;2.47;;;1.63;;
14276;SDS011;7222;57.346;12.150;2023-07-28T14:11:30;2.75;;;1.60;;
14276;SDS011;7222;57.346;12.150;2023-07-28T14:13:58;3.30;;;1.83;;
14276;SDS011;7222;57.346;12.150;2023-07-28T14:16:25;2.70;;;1.70;;
14276;SDS011;7222;57.346;12.150;2023-07-28T14:18:51;1.75;;;1.50;;
14276;SDS011;7222;57.346;12.150;2023-07-28T14:21:18;1.48;;;1.38;;
14276;SDS011;7222;57.346;12.150;2023-07-28T14:23:46;1.77;;;1.65;;
14276;SDS011;7222;57.346;12.150;2023-07-28T14:26:14;1.52;;;1.40;;
14276;SDS011;7222;57.346;12.150;2023-07-28T14:28:41;2.00;;;1.33;;
14276;SDS011;7222;57.346;12.150;2023-07-28T14:31:09;1.95;;;1.75;;
14276;SDS011;7222;57.346;12.150;2023-07-28T14:33:35;1.90;;;1.75;;
14276;SDS011;7222;57.346;12.150;2023-07-28T14:36:02;3.25;;;1.60;;
14276;SDS011;7222;57.346;12.150;2023-07-28T14:38:30;2.17;;;1.67;;
14276;SDS011;7222;57.346;12.150;2023-07-28T14:40:58;3.47;;;1.58;;
14276;SDS011;7222;57.346;12.150;2023-07-28T14:43:25;1.75;;;1.45;;
14276;SDS011;7222;57.346;12.150;2023-07-28T14:45:52;2.05;;;1.73;;
14276;SDS011;7222;57.346;12.150;2023-07-28T14:48:19;2.05;;;1.83;;
14276;SDS011;7222;57.346;12.150;2023-07-28T14:50:46;1.80;;;1.55;;
14276;SDS011;7222;57.346;12.150;2023-07-28T14:53:29;2.65;;;1.80;;
14276;SDS011;7222;57.346;12.150;2023-07-28T14:55:59;1.70;;;1.60;;